createdAt,value
2022-08-28T04:02:32.876Z,54.87
2022-08-28T04:05:03.722Z,54.87
2022-08-28T04:07:33.982Z,54.81
2022-08-28T04:10:04.411Z,54.86
2022-08-28T04:12:37.831Z,54.87
2022-08-28T04:15:11.471Z,54.91
2022-08-28T04:17:42.644Z,54.91
2022-08-28T04:20:11.465Z,54.91
2022-08-28T04:22:43.712Z,54.90
2022-08-28T04:25:15.423Z,54.84
2022-08-28T04:27:50.569Z,54.93
2022-08-28T04:30:19.723Z,54.94
2022-08-28T04:32:50.652Z,54.92
2022-08-28T04:35:19.760Z,54.98
2022-08-28T04:37:58.733Z,55.02
2022-08-28T04:40:29.058Z,54.76
2022-08-28T04:42:58.994Z,54.85
2022-08-28T04:45:28.902Z,54.91
2022-08-28T04:47:59.084Z,54.91
2022-08-28T04:50:33.762Z,54.81
2022-08-28T04:53:08.801Z,54.79
2022-08-28T04:55:54.971Z,54.74
2022-08-28T05:08:26.608Z,54.68
2022-08-28T05:11:43.860Z,54.72
2022-08-28T05:14:16.254Z,54.66
2022-08-28T05:17:15.730Z,54.59
2022-08-28T05:19:46.317Z,54.58
2022-08-28T05:22:15.263Z,54.54
2022-08-28T05:25:06.761Z,54.44
2022-08-28T05:27:44.849Z,54.43
2022-08-28T05:30:54.024Z,54.41
2022-08-28T05:33:47.565Z,54.34
2022-08-28T05:36:20.667Z,54.45
2022-08-28T05:38:58.229Z,54.35
2022-08-28T05:41:52.196Z,53.91
2022-08-28T05:44:30.870Z,53.19
2022-08-28T05:46:59.891Z,52.94
2022-08-28T05:49:28.994Z,52.49
2022-08-28T05:51:59.160Z,51.89
2022-08-28T05:54:29.206Z,51.65
2022-08-28T06:07:10.905Z,50.46
2022-08-28T06:09:39.636Z,49.86
2022-08-28T06:12:08.843Z,49.34
2022-08-28T06:14:38.364Z,48.90
2022-08-28T06:17:08.232Z,48.78
2022-08-28T06:19:41.377Z,49.13
2022-08-28T06:22:15.604Z,50.22
2022-08-28T06:24:58.955Z,50.64
2022-08-28T06:36:50.585Z,50.68
2022-08-28T06:40:25.116Z,50.68
2022-08-28T06:42:54.602Z,50.39
2022-08-28T06:45:23.550Z,50.41
2022-08-28T06:47:52.799Z,50.34
2022-08-28T06:50:21.754Z,50.46
2022-08-28T06:52:51.042Z,50.53
2022-08-28T06:56:35.041Z,50.25
2022-08-28T06:59:05.397Z,50.32
2022-08-28T07:01:36.804Z,50.21
2022-08-28T07:04:10.751Z,50.10
2022-08-28T07:06:44.275Z,50.28
2022-08-28T07:09:12.957Z,49.88
2022-08-28T07:11:45.994Z,49.93
2022-08-28T07:14:15.299Z,49.72
2022-08-28T07:16:44.918Z,49.73
2022-08-28T07:19:14.477Z,49.66
2022-08-28T07:21:45.505Z,49.73
2022-08-28T07:24:16.750Z,49.70
2022-08-28T07:26:47.553Z,49.56
2022-08-28T07:29:17.209Z,49.49
2022-08-28T07:31:52.842Z,49.43
2022-08-28T07:34:27.117Z,49.25
2022-08-28T07:36:58.868Z,49.54
2022-08-28T07:39:27.821Z,49.16
2022-08-28T07:41:56.641Z,49.19
2022-08-28T07:44:44.490Z,49.40
2022-08-28T07:47:14.003Z,49.23
2022-08-28T07:49:42.317Z,49.14
2022-08-28T07:52:12.252Z,49.38
2022-08-28T07:54:40.985Z,48.99
2022-08-28T07:57:10.559Z,49.33
2022-08-28T07:59:42.216Z,49.46
2022-08-28T08:02:11.669Z,48.88
2022-08-28T08:04:40.930Z,48.89
2022-08-28T08:07:13.438Z,49.09
2022-08-28T08:09:44.498Z,48.92
2022-08-28T08:12:15.363Z,48.67
2022-08-28T08:14:44.628Z,48.79
2022-08-28T08:17:13.273Z,48.46
2022-08-28T08:19:42.397Z,49.02
2022-08-28T08:22:11.029Z,48.62
2022-08-28T08:24:39.749Z,48.50
2022-08-28T08:27:10.699Z,48.18
2022-08-28T08:29:39.160Z,48.35
2022-08-28T08:32:11.454Z,48.17
2022-08-28T08:34:50.453Z,48.01
2022-08-28T08:37:23.270Z,48.06
2022-08-28T08:39:53.706Z,48.08
2022-08-28T08:42:28.395Z,47.95
2022-08-28T08:45:00.480Z,47.92
2022-08-28T08:47:41.873Z,47.72
2022-08-28T08:50:21.292Z,48.08
2022-08-28T08:53:06.183Z,48.03
2022-08-28T08:56:17.434Z,48.17
2022-08-28T08:59:25.716Z,47.77
2022-08-28T09:02:07.578Z,47.64
2022-08-28T09:04:46.466Z,48.02
2022-08-28T09:07:38.126Z,48.07
2022-08-28T09:10:15.730Z,47.70
2022-08-28T09:13:06.502Z,47.41
2022-08-28T09:15:42.625Z,47.64
2022-08-28T09:18:24.050Z,47.32
2022-08-28T09:21:03.067Z,47.31
2022-08-28T09:23:54.850Z,47.45
2022-08-28T09:26:34.305Z,47.75
2022-08-28T09:29:22.599Z,47.89
2022-08-28T09:31:51.459Z,47.84
2022-08-28T09:34:25.380Z,47.58
2022-08-28T09:36:57.129Z,47.85
2022-08-28T09:39:41.288Z,47.73
2022-08-28T09:43:17.031Z,48.02
2022-08-28T09:45:56.304Z,47.55
2022-08-28T09:48:33.074Z,47.36
2022-08-28T09:51:06.846Z,47.13
2022-08-28T09:53:42.737Z,47.02
2022-08-28T09:56:26.983Z,46.94
2022-08-28T09:59:17.533Z,46.94
2022-08-28T10:01:52.146Z,46.87
2022-08-28T10:04:52.140Z,46.77
2022-08-28T10:07:26.770Z,46.78
2022-08-28T10:10:19.603Z,46.83
2022-08-28T10:13:06.019Z,46.61
2022-08-28T10:15:55.678Z,46.53
2022-08-28T10:18:55.595Z,46.62
2022-08-28T10:21:28.912Z,46.30
2022-08-28T10:24:10.250Z,46.39
2022-08-28T10:26:52.941Z,46.34
2022-08-28T10:29:40.250Z,45.97
2022-08-28T10:32:18.250Z,45.83
2022-08-28T10:34:50.400Z,45.65
2022-08-28T10:37:36.406Z,45.73
2022-08-28T10:40:12.225Z,45.58
2022-08-28T10:43:09.588Z,45.56
2022-08-28T10:45:48.478Z,45.50
2022-08-28T10:48:27.701Z,45.49
2022-08-28T10:51:05.316Z,45.37
2022-08-28T10:53:51.472Z,45.37
2022-08-28T10:56:30.316Z,44.95
2022-08-28T10:58:59.662Z,45.06
2022-08-28T11:01:32.797Z,45.01
2022-08-28T11:04:06.882Z,45.03
2022-08-28T11:06:47.612Z,44.87
2022-08-28T11:09:28.684Z,45.01
2022-08-28T11:12:06.378Z,45.17
2022-08-28T11:14:39.323Z,44.96
2022-08-28T11:17:30.765Z,44.99
2022-08-28T11:20:03.788Z,44.78
2022-08-28T11:22:38.846Z,44.61
2022-08-28T11:25:32.541Z,44.60
2022-08-28T11:28:25.998Z,44.62
2022-08-28T11:31:01.743Z,44.39
2022-08-28T11:33:53.018Z,44.17
2022-08-28T11:36:23.273Z,44.29
2022-08-28T11:38:54.937Z,44.28
2022-08-28T11:41:24.874Z,44.29
2022-08-28T11:44:15.396Z,44.15
2022-08-28T11:46:51.284Z,44.33
2022-08-28T11:49:35.132Z,44.24
2022-08-28T11:52:25.042Z,44.41
2022-08-28T11:55:16.782Z,44.28
2022-08-28T11:58:15.386Z,44.30
2022-08-28T12:00:58.429Z,44.44
2022-08-28T12:03:42.660Z,44.54
2022-08-28T12:06:13.955Z,44.57
2022-08-28T12:08:45.518Z,44.51
2022-08-28T12:11:45.487Z,44.43
2022-08-28T12:14:26.185Z,44.35
2022-08-28T12:17:05.709Z,44.13
2022-08-28T12:19:55.517Z,44.17
2022-08-28T12:22:53.358Z,44.14
2022-08-28T12:26:13.442Z,44.16
2022-08-28T12:28:58.413Z,44.08
2022-08-28T12:31:48.578Z,44.12
2022-08-28T12:34:40.291Z,43.88
2022-08-28T12:37:30.596Z,43.90
2022-08-28T12:40:21.367Z,43.91
2022-08-28T12:43:09.782Z,43.88
2022-08-28T12:45:52.838Z,43.79
2022-08-28T12:48:27.823Z,43.76
2022-08-28T12:51:06.839Z,43.83
2022-08-28T12:53:44.742Z,43.74
2022-08-28T12:56:15.947Z,43.58
2022-08-28T12:58:46.147Z,43.56
2022-08-28T13:01:20.979Z,43.27
2022-08-28T13:04:32.966Z,43.47
2022-08-28T13:07:23.983Z,43.53
2022-08-28T13:09:56.654Z,43.81
2022-08-28T13:12:56.115Z,43.87
2022-08-28T13:15:56.144Z,43.62
2022-08-28T13:18:50.529Z,43.69
2022-08-28T13:21:32.536Z,43.89
2022-08-28T13:24:26.572Z,43.90
2022-08-28T13:27:01.563Z,43.96
2022-08-28T13:29:30.443Z,43.97
2022-08-28T13:32:15.181Z,43.87
2022-08-28T13:35:22.460Z,43.92
2022-08-28T13:37:55.150Z,43.97
2022-08-28T13:43:18.077Z,43.91
2022-08-28T13:45:49.231Z,43.92
2022-08-28T13:48:26.789Z,44.12
2022-08-28T13:51:05.142Z,44.00
2022-08-28T13:53:38.782Z,44.07
2022-08-28T13:56:07.709Z,44.05
2022-08-28T13:58:37.087Z,44.03
2022-08-28T14:01:06.307Z,44.04
2022-08-28T14:03:39.398Z,44.15
2022-08-28T14:06:20.321Z,44.06
2022-08-28T14:08:51.461Z,43.99
2022-08-28T14:11:19.716Z,44.02
2022-08-28T14:13:55.994Z,44.08
2022-08-28T14:16:26.922Z,44.07
2022-08-28T14:18:56.204Z,44.12
2022-08-28T14:21:25.430Z,44.23
2022-08-28T14:23:54.549Z,44.29
2022-08-28T14:26:23.173Z,44.35
2022-08-28T14:28:52.791Z,44.32
2022-08-28T14:31:26.366Z,44.40
2022-08-28T14:33:58.264Z,44.38
2022-08-28T14:36:30.641Z,44.44
2022-08-28T14:39:06.026Z,44.55
2022-08-28T14:41:35.583Z,44.56
2022-08-28T14:44:05.609Z,44.55
2022-08-28T14:46:36.870Z,44.60
2022-08-28T14:49:09.325Z,44.72
2022-08-28T14:51:41.856Z,44.67
2022-08-28T14:54:13.719Z,44.78
2022-08-28T14:56:44.778Z,44.81
2022-08-28T14:59:23.774Z,44.88
2022-08-28T15:01:56.255Z,45.01
2022-08-28T15:04:26.410Z,45.01
2022-08-28T15:06:59.750Z,44.97
2022-08-28T15:09:28.614Z,44.96
2022-08-28T15:11:57.224Z,45.39
2022-08-28T15:14:26.106Z,45.40
2022-08-28T15:16:54.887Z,45.47
2022-08-28T15:19:24.284Z,45.48
2022-08-28T15:21:55.405Z,45.53
2022-08-28T15:24:27.205Z,45.49
2022-08-28T15:26:55.702Z,45.63
2022-08-28T15:29:24.179Z,45.68
2022-08-28T15:31:53.015Z,45.90
2022-08-28T15:34:25.646Z,45.97
2022-08-28T15:36:56.563Z,46.02
2022-08-28T15:39:46.015Z,45.98
2022-08-28T15:42:15.125Z,46.00
2022-08-28T15:44:43.609Z,46.08
2022-08-28T15:47:14.002Z,46.22
2022-08-28T15:49:48.822Z,46.17
2022-08-28T15:52:19.503Z,46.13
2022-08-28T15:54:49.236Z,46.37
2022-08-28T15:57:18.781Z,46.41
2022-08-28T15:59:50.108Z,46.46
2022-08-28T16:02:22.864Z,46.62
2022-08-28T16:04:52.326Z,46.59
2022-08-28T16:07:22.883Z,46.65
2022-08-28T16:09:52.355Z,46.80
2022-08-28T16:12:20.845Z,47.02
2022-08-28T16:14:50.696Z,46.99
2022-08-28T16:17:19.233Z,47.20
2022-08-28T16:19:48.951Z,47.24
2022-08-28T16:22:18.517Z,47.20
2022-08-28T16:24:47.753Z,47.37
2022-08-28T16:27:16.716Z,47.52
2022-08-28T16:29:45.864Z,47.41
2022-08-28T16:32:14.983Z,47.54
2022-08-28T16:34:45.078Z,47.75
2022-08-28T16:37:19.421Z,47.94
2022-08-28T16:39:53.558Z,48.12
2022-08-28T16:42:24.325Z,48.02
2022-08-28T16:44:58.049Z,48.16
2022-08-28T16:47:28.175Z,48.16
2022-08-28T16:50:03.392Z,48.40
2022-08-28T16:52:36.459Z,48.47
2022-08-28T16:55:08.466Z,48.59
2022-08-28T16:57:38.855Z,48.53
2022-08-28T17:00:12.207Z,48.66
2022-08-28T17:02:43.769Z,48.91
2022-08-28T17:05:16.314Z,48.71
2022-08-28T17:07:44.701Z,48.91
2022-08-28T17:10:16.457Z,48.95
2022-08-28T17:12:45.633Z,49.02
2022-08-28T17:15:15.359Z,49.24
2022-08-28T17:17:44.598Z,49.24
2022-08-28T17:20:33.971Z,49.61
2022-08-28T17:23:03.906Z,49.76
2022-08-28T17:25:33.177Z,49.61
2022-08-28T17:28:02.733Z,49.65
2022-08-28T17:30:31.627Z,49.79
2022-08-28T17:33:00.877Z,49.74
2022-08-28T17:35:29.830Z,50.10
2022-08-28T17:37:58.114Z,50.30
2022-08-28T17:40:27.437Z,50.36
2022-08-28T17:42:57.390Z,50.60
2022-08-28T17:45:26.446Z,50.63
2022-08-28T17:47:55.934Z,50.54
2022-08-28T17:50:24.687Z,50.63
2022-08-28T17:52:52.952Z,50.63
2022-08-28T17:55:21.478Z,51.01
2022-08-28T17:57:49.651Z,51.11
2022-08-28T18:00:18.451Z,51.19
2022-08-28T18:02:49.628Z,51.44
2022-08-28T18:05:18.730Z,51.41
2022-08-28T18:07:47.445Z,51.67
2022-08-28T18:10:16.014Z,51.73
2022-08-28T18:12:44.527Z,51.90
2022-08-28T18:15:13.789Z,52.05
2022-08-28T18:17:44.155Z,52.17
2022-08-28T18:20:13.035Z,52.19
2022-08-28T18:22:41.415Z,52.29
2022-08-28T18:25:30.062Z,52.55
2022-08-28T18:28:02.227Z,52.65
2022-08-28T18:30:31.656Z,52.80
2022-08-28T18:33:07.525Z,52.86
2022-08-28T18:35:41.503Z,52.91
2022-08-28T18:38:14.138Z,53.06
2022-08-28T18:40:45.006Z,53.22
2022-08-28T18:43:14.125Z,53.25
2022-08-28T18:45:42.968Z,53.34
2022-08-28T18:48:11.220Z,53.51
2022-08-28T18:50:43.224Z,53.66
2022-08-28T18:53:22.342Z,53.72
2022-08-28T18:55:52.819Z,53.77
2022-08-28T18:58:23.393Z,53.86
2022-08-28T19:00:52.798Z,53.97
2022-08-28T19:03:23.525Z,54.15
2022-08-28T19:05:52.124Z,54.15
2022-08-28T19:08:20.424Z,54.36
2022-08-28T19:10:48.743Z,54.50
2022-08-28T19:13:17.001Z,54.76
2022-08-28T19:15:52.834Z,54.75
2022-08-28T19:18:21.123Z,54.83
2022-08-28T19:20:49.480Z,54.97
2022-08-28T19:23:18.129Z,55.13
2022-08-28T19:25:48.530Z,55.24
2022-08-28T19:28:16.968Z,55.31
2022-08-28T19:30:47.841Z,55.43
2022-08-28T19:33:17.017Z,55.47
2022-08-28T19:35:45.146Z,55.64
2022-08-28T19:38:13.424Z,55.75
2022-08-28T19:40:42.003Z,55.84
2022-08-28T19:43:12.648Z,56.04
2022-08-28T19:45:46.049Z,56.07
2022-08-28T19:48:14.624Z,56.23
2022-08-28T19:50:44.211Z,56.34
2022-08-28T19:53:13.498Z,56.49
2022-08-28T19:55:41.858Z,56.73
2022-08-28T19:58:11.251Z,56.86
2022-08-28T20:00:39.817Z,57.03
2022-08-28T20:03:08.334Z,57.17
2022-08-28T20:05:38.424Z,57.36
2022-08-28T20:08:07.345Z,57.70
2022-08-28T20:10:38.882Z,57.79
2022-08-28T20:13:08.581Z,58.79
2022-08-28T20:15:41.232Z,59.33
2022-08-28T20:31:09.805Z,57.94
2022-08-28T20:33:38.908Z,58.04
2022-08-28T20:36:16.039Z,58.21
2022-08-28T20:38:51.047Z,58.33
2022-08-28T20:41:24.279Z,58.49
2022-08-28T20:43:53.139Z,58.78
2022-08-28T20:46:22.630Z,59.12
2022-08-28T20:48:52.078Z,59.43
2022-08-28T20:51:44.056Z,59.57
2022-08-28T20:54:13.182Z,59.81
2022-08-28T20:56:42.549Z,59.91
2022-08-28T20:59:11.249Z,59.98
2022-08-28T21:01:40.996Z,60.15
2022-08-28T21:04:13.890Z,60.21
2022-08-28T21:06:45.166Z,60.25
2022-08-28T21:09:39.570Z,60.39
2022-08-28T21:12:19.707Z,60.48
2022-08-28T21:14:51.399Z,60.54
2022-08-28T21:17:29.059Z,60.77
2022-08-28T21:20:06.679Z,60.89
2022-08-28T21:22:36.299Z,60.83
2022-08-28T21:25:07.427Z,61.05
2022-08-28T21:27:40.499Z,61.06
2022-08-28T21:30:12.807Z,61.30
2022-08-28T21:33:01.267Z,61.18
2022-08-28T21:35:30.026Z,61.31
2022-08-28T21:37:59.502Z,61.45
2022-08-28T21:40:36.269Z,61.47
2022-08-28T21:43:06.309Z,61.60
2022-08-28T21:45:34.706Z,61.69
2022-08-28T21:48:03.696Z,61.68
2022-08-28T21:50:32.229Z,61.65
2022-08-28T21:53:01.270Z,61.74
2022-08-28T21:55:30.201Z,61.81
2022-08-28T21:57:59.562Z,61.90
2022-08-28T22:00:29.171Z,61.99
2022-08-28T22:02:58.304Z,61.98
2022-08-28T22:05:29.036Z,62.09
2022-08-28T22:07:58.727Z,62.13
2022-08-28T22:10:30.750Z,62.16
2022-08-28T22:13:00.067Z,62.32
2022-08-28T22:15:30.029Z,62.50
2022-08-28T22:18:01.927Z,62.47
2022-08-28T22:20:31.237Z,62.68
2022-08-28T22:23:12.101Z,62.68
2022-08-28T22:25:42.875Z,62.75
2022-08-28T22:28:14.803Z,62.78
2022-08-28T22:30:48.096Z,62.85
2022-08-28T22:33:18.642Z,63.04
2022-08-28T22:35:50.149Z,63.08
2022-08-28T22:38:21.124Z,63.07
2022-08-28T22:40:50.553Z,63.23
2022-08-28T22:43:20.479Z,63.28
2022-08-28T22:45:50.217Z,63.25
2022-08-28T22:48:19.851Z,63.43
2022-08-28T22:50:49.888Z,63.56
2022-08-28T22:53:19.351Z,63.54
2022-08-28T22:55:48.709Z,63.41
2022-08-28T22:58:17.976Z,63.59
